createdAt,value
2022-08-26T00:02:07.318Z,27.39
2022-08-26T00:04:35.635Z,27.36
2022-08-26T00:07:03.729Z,27.37
2022-08-26T00:09:38.947Z,27.32
2022-08-26T00:12:09.445Z,27.30
2022-08-26T00:14:42.402Z,27.29
2022-08-26T00:17:10.953Z,27.33
2022-08-26T00:19:39.312Z,27.30
2022-08-26T00:22:08.382Z,27.27
2022-08-26T00:24:36.477Z,27.23
2022-08-26T00:27:04.273Z,27.23
2022-08-26T00:29:35.603Z,27.21
2022-08-26T00:32:07.417Z,27.20
2022-08-26T00:34:36.375Z,27.17
2022-08-26T00:37:04.944Z,27.23
2022-08-26T00:39:38.030Z,27.21
2022-08-26T00:42:06.434Z,27.21
2022-08-26T00:44:34.346Z,27.23
2022-08-26T00:47:06.504Z,27.17
2022-08-26T00:49:43.084Z,27.21
2022-08-26T00:52:16.530Z,27.13
2022-08-26T00:54:50.723Z,27.14
2022-08-26T00:57:20.975Z,27.09
2022-08-26T00:59:52.649Z,27.10
2022-08-26T01:02:21.141Z,27.06
2022-08-26T01:04:55.507Z,27.06
2022-08-26T01:07:26.323Z,26.96
2022-08-26T01:09:56.017Z,26.93
2022-08-26T01:12:25.366Z,26.91
2022-08-26T01:14:53.891Z,26.90
2022-08-26T01:17:21.907Z,26.87
2022-08-26T01:19:58.252Z,26.79
2022-08-26T01:22:31.647Z,26.66
2022-08-26T01:25:03.717Z,26.76
2022-08-26T01:27:33.655Z,26.79
2022-08-26T01:30:03.133Z,26.94
2022-08-26T01:32:34.157Z,27.11
2022-08-26T01:35:03.353Z,27.16
2022-08-26T01:37:36.937Z,27.29
2022-08-26T01:40:14.164Z,27.27
2022-08-26T01:42:46.848Z,27.22
2022-08-26T01:45:19.827Z,27.14
2022-08-26T01:47:56.736Z,27.09
2022-08-26T01:50:30.707Z,26.99
2022-08-26T01:53:02.321Z,27.02
2022-08-26T01:55:34.075Z,26.97
2022-08-26T01:58:05.861Z,26.88
2022-08-26T02:00:34.802Z,26.89
2022-08-26T02:03:18.004Z,26.87
2022-08-26T02:05:52.962Z,26.97
2022-08-26T02:08:25.330Z,26.93
2022-08-26T02:10:56.192Z,26.91
2022-08-26T02:13:27.727Z,26.92
2022-08-26T02:15:56.585Z,26.86
2022-08-26T02:18:26.168Z,26.87
2022-08-26T02:20:55.721Z,26.86
2022-08-26T02:23:24.453Z,26.85
2022-08-26T02:26:01.244Z,26.84
2022-08-26T02:28:33.529Z,26.82
2022-08-26T02:31:02.574Z,26.77
2022-08-26T02:33:31.190Z,26.71
2022-08-26T02:35:59.355Z,26.71
2022-08-26T02:38:27.801Z,26.65
2022-08-26T02:40:57.078Z,26.73
2022-08-26T02:43:31.740Z,26.56
2022-08-26T02:46:02.386Z,26.52
2022-08-26T02:48:31.817Z,26.54
2022-08-26T02:51:01.868Z,26.51
2022-08-26T02:53:32.025Z,26.51
2022-08-26T02:56:05.409Z,26.53
2022-08-26T02:58:33.969Z,26.54
2022-08-26T03:01:02.138Z,26.52
2022-08-26T03:03:33.655Z,26.50
2022-08-26T03:06:01.603Z,26.57
2022-08-26T03:08:29.495Z,26.56
2022-08-26T03:10:57.555Z,26.57
2022-08-26T03:13:26.958Z,26.52
2022-08-26T03:15:55.253Z,26.52
2022-08-26T03:18:24.283Z,26.47
2022-08-26T03:20:52.329Z,26.35
2022-08-26T03:23:20.220Z,26.32
2022-08-26T03:25:51.322Z,26.39
2022-08-26T03:28:19.785Z,26.28
2022-08-26T03:30:49.305Z,26.32
2022-08-26T03:33:17.932Z,26.28
2022-08-26T03:35:47.944Z,26.25
2022-08-26T03:38:20.192Z,26.21
2022-08-26T03:40:48.445Z,26.18
2022-08-26T03:43:19.149Z,26.27
2022-08-26T03:45:47.126Z,26.28
2022-08-26T03:48:16.533Z,26.26
2022-08-26T03:50:44.646Z,26.22
2022-08-26T03:53:13.217Z,26.24
2022-08-26T03:55:41.448Z,26.16
2022-08-26T03:58:09.418Z,26.16
2022-08-26T04:00:37.328Z,26.11
2022-08-26T04:03:05.422Z,26.13
2022-08-26T04:05:39.469Z,26.13
2022-08-26T04:08:08.108Z,26.01
2022-08-26T04:10:39.049Z,26.02
2022-08-26T04:13:07.225Z,25.97
2022-08-26T04:15:35.460Z,25.93
2022-08-26T04:18:03.540Z,25.91
2022-08-26T04:20:31.500Z,25.93
2022-08-26T04:23:00.833Z,25.98
2022-08-26T04:25:29.128Z,25.94
2022-08-26T04:27:57.417Z,25.96
2022-08-26T04:30:25.339Z,25.97
2022-08-26T04:32:53.603Z,26.03
2022-08-26T04:35:25.638Z,26.00
2022-08-26T04:37:54.505Z,25.93
2022-08-26T04:40:24.211Z,26.12
2022-08-26T04:42:53.927Z,26.14
2022-08-26T04:45:22.861Z,26.06
2022-08-26T04:47:54.768Z,26.04
2022-08-26T04:50:23.839Z,26.14
2022-08-26T04:52:53.081Z,26.14
2022-08-26T04:55:21.160Z,26.14
2022-08-26T04:58:10.282Z,26.17
2022-08-26T05:00:39.187Z,26.17
2022-08-26T05:03:10.293Z,26.18
2022-08-26T05:05:40.463Z,26.21
2022-08-26T05:08:08.623Z,26.24
2022-08-26T05:10:41.192Z,26.28
2022-08-26T05:13:15.190Z,26.21
2022-08-26T05:15:45.251Z,26.21
2022-08-26T05:18:16.625Z,26.31
2022-08-26T05:20:47.130Z,26.44
2022-08-26T05:23:15.757Z,26.46
2022-08-26T05:25:46.233Z,26.45
2022-08-26T05:28:17.306Z,26.42
2022-08-26T05:30:45.476Z,26.57
2022-08-26T05:33:14.391Z,26.68
2022-08-26T05:35:42.728Z,26.75
2022-08-26T05:38:13.241Z,26.77
2022-08-26T05:40:44.646Z,26.82
2022-08-26T05:43:13.656Z,26.82
2022-08-26T05:45:46.472Z,27.01
2022-08-26T05:48:16.359Z,27.06
2022-08-26T05:50:47.137Z,27.02
2022-08-26T05:53:17.594Z,27.24
2022-08-26T05:55:47.370Z,27.34
2022-08-26T05:58:17.475Z,27.53
2022-08-26T06:00:49.154Z,27.71
2022-08-26T06:03:17.812Z,27.76
2022-08-26T06:05:45.801Z,27.96
2022-08-26T06:08:14.260Z,28.00
2022-08-26T06:10:50.280Z,28.24
2022-08-26T06:13:19.847Z,28.18
2022-08-26T06:15:51.961Z,27.81
2022-08-26T06:18:24.506Z,28.30
2022-08-26T06:20:57.858Z,28.36
2022-08-26T06:23:45.786Z,28.54
2022-08-26T06:26:16.481Z,28.71
2022-08-26T06:28:45.500Z,28.76
2022-08-26T06:31:16.489Z,28.67
2022-08-26T06:33:46.028Z,28.34
2022-08-26T06:36:19.395Z,28.45
2022-08-26T06:38:48.575Z,28.77
2022-08-26T06:41:17.007Z,28.99
2022-08-26T06:43:45.694Z,28.68
2022-08-26T06:46:17.794Z,28.54
2022-08-26T06:48:46.319Z,29.00
2022-08-26T06:51:19.106Z,29.17
2022-08-26T06:53:51.942Z,29.52
2022-08-26T06:56:23.188Z,29.63
2022-08-26T06:58:53.022Z,29.92
2022-08-26T07:01:27.322Z,30.38
2022-08-26T07:03:59.283Z,31.43
2022-08-26T07:06:30.309Z,33.11
2022-08-26T07:09:04.248Z,34.00
2022-08-26T07:11:32.713Z,35.31
2022-08-26T07:14:00.846Z,37.04
2022-08-26T07:16:31.297Z,36.99
2022-08-26T07:19:03.419Z,38.73
2022-08-26T07:21:40.312Z,40.79
2022-08-26T07:24:08.863Z,40.49
2022-08-26T07:26:43.189Z,41.13
2022-08-26T07:29:12.529Z,40.34
2022-08-26T07:31:42.975Z,38.12
2022-08-26T07:34:11.819Z,37.63
2022-08-26T07:36:39.794Z,37.87
2022-08-26T07:39:08.619Z,40.43
2022-08-26T07:41:37.065Z,41.63
2022-08-26T07:44:06.376Z,42.85
2022-08-26T07:46:36.438Z,42.40
2022-08-26T07:49:06.036Z,43.71
2022-08-26T07:51:34.885Z,45.78
2022-08-26T07:54:03.023Z,44.89
2022-08-26T07:56:30.955Z,46.70
2022-08-26T07:58:59.349Z,45.49
2022-08-26T08:01:29.848Z,47.49
2022-08-26T08:04:00.494Z,47.99
2022-08-26T08:06:31.991Z,46.85
2022-08-26T08:09:00.922Z,48.68
2022-08-26T08:11:31.143Z,46.17
2022-08-26T08:14:01.007Z,46.25
2022-08-26T08:16:32.274Z,47.28
2022-08-26T08:19:02.744Z,46.38
2022-08-26T08:21:33.298Z,46.47
2022-08-26T08:24:01.515Z,49.27
2022-08-26T08:26:29.559Z,50.31
2022-08-26T08:28:58.887Z,50.67
2022-08-26T08:34:18.383Z,51.55
2022-08-26T08:36:47.800Z,52.24
2022-08-26T08:39:15.740Z,51.17
2022-08-26T08:41:55.427Z,50.23
2022-08-26T08:47:02.980Z,48.58
2022-08-26T08:49:32.043Z,47.28
2022-08-26T08:52:07.787Z,48.02
2022-08-26T08:54:36.013Z,44.48
2022-08-26T08:57:12.315Z,48.03
2022-08-26T08:59:46.217Z,41.75
2022-08-26T09:02:20.903Z,43.05
2022-08-26T09:05:04.846Z,48.19
2022-08-26T09:07:37.685Z,46.19
2022-08-26T09:10:18.707Z,48.71
2022-08-26T09:12:48.757Z,45.74
2022-08-26T09:15:21.558Z,44.18
2022-08-26T09:18:00.573Z,42.74
2022-08-26T09:20:41.144Z,41.43
2022-08-26T09:23:12.537Z,39.98
2022-08-26T09:25:48.243Z,45.11
2022-08-26T09:28:18.930Z,49.53
2022-08-26T09:30:49.196Z,44.80
2022-08-26T09:33:20.374Z,46.04
2022-08-26T09:35:48.755Z,44.41
2022-08-26T09:38:28.042Z,42.80
2022-08-26T09:40:58.071Z,44.44
2022-08-26T09:43:28.727Z,41.85
2022-08-26T09:46:13.588Z,42.75
2022-08-26T09:48:42.892Z,42.13
2022-08-26T09:51:29.389Z,41.19
2022-08-26T09:54:01.894Z,42.07
2022-08-26T09:56:32.516Z,41.94
2022-08-26T09:59:01.732Z,40.88
2022-08-26T10:01:34.036Z,40.58
2022-08-26T10:04:08.306Z,39.70
2022-08-26T10:06:40.215Z,40.17
2022-08-26T10:09:14.399Z,39.92
2022-08-26T10:11:47.658Z,39.43
2022-08-26T10:14:21.389Z,38.97
2022-08-26T10:16:53.773Z,38.57
2022-08-26T10:19:29.209Z,38.77
2022-08-26T10:22:21.995Z,38.95
2022-08-26T10:24:55.492Z,38.73
2022-08-26T10:27:28.901Z,38.66
2022-08-26T10:30:03.931Z,38.50
2022-08-26T10:32:41.275Z,38.95
2022-08-26T10:35:13.452Z,38.58
2022-08-26T10:37:46.724Z,37.87
2022-08-26T10:40:24.882Z,36.99
2022-08-26T10:42:57.171Z,36.67
2022-08-26T10:45:28.649Z,36.42
2022-08-26T10:48:04.171Z,36.30
2022-08-26T10:50:36.004Z,36.13
2022-08-26T10:53:14.150Z,35.78
2022-08-26T10:55:54.851Z,35.56
2022-08-26T10:58:37.730Z,35.71
2022-08-26T11:01:32.498Z,35.20
2022-08-26T11:04:08.946Z,35.40
2022-08-26T11:06:37.241Z,35.48
2022-08-26T11:09:07.380Z,35.44
2022-08-26T11:11:51.894Z,35.40
2022-08-26T11:14:46.163Z,35.46
2022-08-26T11:17:58.506Z,35.59
2022-08-26T11:20:39.138Z,35.46
2022-08-26T11:23:40.306Z,35.39
2022-08-26T11:26:30.012Z,35.36
2022-08-26T11:29:13.235Z,35.07
2022-08-26T11:31:57.036Z,33.90
2022-08-26T11:34:56.403Z,34.40
2022-08-26T11:37:33.084Z,34.78
2022-08-26T11:40:03.388Z,34.49
2022-08-26T11:42:38.057Z,34.92
2022-08-26T11:45:19.512Z,34.41
2022-08-26T11:47:49.472Z,34.95
2022-08-26T11:50:21.703Z,35.09
2022-08-26T11:53:01.905Z,35.51
2022-08-26T11:55:31.737Z,35.53
2022-08-26T11:58:02.297Z,35.50
2022-08-26T12:00:40.283Z,35.30
2022-08-26T12:03:19.720Z,35.06
2022-08-26T12:05:50.337Z,35.18
2022-08-26T12:08:21.977Z,34.27
2022-08-26T12:10:50.362Z,34.36
2022-08-26T12:13:23.167Z,34.30
2022-08-26T12:15:57.966Z,35.05
2022-08-26T12:18:29.487Z,34.47
2022-08-26T12:21:00.791Z,35.14
2022-08-26T12:23:44.126Z,35.87
2022-08-26T12:26:19.616Z,36.15
2022-08-26T12:28:51.644Z,36.39
2022-08-26T12:31:29.511Z,36.63
2022-08-26T12:34:00.276Z,36.67
2022-08-26T12:36:36.268Z,36.77
2022-08-26T12:39:10.887Z,36.83
2022-08-26T12:41:46.517Z,36.82
2022-08-26T12:44:38.823Z,37.25
2022-08-26T12:47:11.776Z,37.13
2022-08-26T12:49:42.503Z,35.87
2022-08-26T12:52:30.060Z,36.92
2022-08-26T12:55:01.170Z,37.32
2022-08-26T12:57:32.618Z,37.51
2022-08-26T13:00:39.556Z,37.49
2022-08-26T13:03:31.119Z,37.78
2022-08-26T13:06:16.031Z,38.21
2022-08-26T13:08:45.885Z,38.57
2022-08-26T13:11:20.160Z,38.68
2022-08-26T13:13:50.681Z,39.11
2022-08-26T13:16:19.962Z,38.84
2022-08-26T13:18:51.163Z,38.43
2022-08-26T13:21:21.750Z,37.84
2022-08-26T13:23:50.657Z,37.29
2022-08-26T13:26:19.049Z,37.36
2022-08-26T13:29:01.123Z,36.70
2022-08-26T13:31:32.655Z,36.98
2022-08-26T13:34:03.817Z,36.79
2022-08-26T13:36:31.791Z,36.87
2022-08-26T13:38:59.936Z,36.89
2022-08-26T13:41:29.449Z,37.15
2022-08-26T13:43:58.237Z,37.07
2022-08-26T13:46:28.476Z,37.59
2022-08-26T13:48:56.970Z,38.07
2022-08-26T13:51:27.403Z,37.90
2022-08-26T13:53:56.091Z,38.65
2022-08-26T13:56:24.744Z,38.87
2022-08-26T13:58:52.639Z,38.56
2022-08-26T14:01:20.807Z,39.18
2022-08-26T14:03:48.991Z,38.95
2022-08-26T14:06:17.109Z,38.44
2022-08-26T14:08:47.030Z,38.96
2022-08-26T14:11:15.292Z,39.21
2022-08-26T14:13:43.213Z,39.18
2022-08-26T14:16:15.650Z,39.12
2022-08-26T14:18:48.560Z,38.86
2022-08-26T14:21:18.731Z,38.42
2022-08-26T14:23:48.235Z,38.47
2022-08-26T14:26:19.003Z,38.27
2022-08-26T14:28:57.850Z,37.58
2022-08-26T14:31:27.101Z,37.67
2022-08-26T14:33:56.263Z,37.23
2022-08-26T14:36:32.084Z,37.29
2022-08-26T14:39:05.383Z,36.99
2022-08-26T14:41:34.509Z,36.79
2022-08-26T14:44:05.309Z,36.75
2022-08-26T14:46:39.118Z,36.40
2022-08-26T14:49:10.378Z,36.52
2022-08-26T14:51:38.768Z,36.27
2022-08-26T14:54:14.212Z,36.13
2022-08-26T14:56:46.014Z,36.22
2022-08-26T14:59:15.251Z,36.11
2022-08-26T15:01:43.197Z,36.08
2022-08-26T15:04:11.180Z,35.94
2022-08-26T15:06:39.474Z,35.73
2022-08-26T15:09:09.169Z,35.42
2022-08-26T15:11:37.445Z,35.41
2022-08-26T15:14:05.820Z,35.26
2022-08-26T15:16:34.922Z,35.08
2022-08-26T15:19:04.882Z,35.07
2022-08-26T15:21:32.845Z,35.02
2022-08-26T15:24:01.464Z,34.89
2022-08-26T15:26:32.079Z,34.84
2022-08-26T15:29:04.369Z,35.23
2022-08-26T15:31:34.139Z,35.57
2022-08-26T15:34:06.083Z,35.55
2022-08-26T15:36:34.494Z,35.38
2022-08-26T15:39:02.561Z,35.33
2022-08-26T15:41:31.929Z,34.37
2022-08-26T15:44:03.912Z,35.20
2022-08-26T15:46:32.583Z,34.40
2022-08-26T15:49:00.612Z,34.03
2022-08-26T15:51:32.079Z,33.94
2022-08-26T15:54:02.638Z,33.70
2022-08-26T15:56:37.725Z,33.69
2022-08-26T15:59:08.264Z,33.70
2022-08-26T16:01:37.257Z,33.59
2022-08-26T16:04:06.901Z,32.96
2022-08-26T16:06:37.693Z,32.83
2022-08-26T16:09:06.882Z,33.00
2022-08-26T16:11:37.676Z,33.48
2022-08-26T16:14:08.393Z,33.26
2022-08-26T16:16:39.462Z,33.40
2022-08-26T16:19:07.881Z,33.44
2022-08-26T16:21:36.514Z,33.52
2022-08-26T16:24:05.075Z,33.66
2022-08-26T16:26:37.330Z,33.47
2022-08-26T16:29:08.824Z,33.58
2022-08-26T16:31:38.513Z,33.42
2022-08-26T16:34:07.141Z,33.34
2022-08-26T16:36:35.539Z,33.21
2022-08-26T16:39:04.095Z,32.92
2022-08-26T16:41:33.207Z,33.13
2022-08-26T16:44:02.700Z,33.06
2022-08-26T16:46:31.369Z,32.76
2022-08-26T16:49:00.289Z,32.63
2022-08-26T16:51:29.611Z,32.72
2022-08-26T16:53:59.170Z,32.60
2022-08-26T16:56:33.947Z,32.48
2022-08-26T16:59:05.209Z,32.47
2022-08-26T17:01:33.562Z,32.48
2022-08-26T17:04:02.299Z,32.48
2022-08-26T17:06:30.520Z,32.49
2022-08-26T17:08:58.651Z,32.39
2022-08-26T17:11:26.577Z,31.94
2022-08-26T17:13:54.781Z,32.11
2022-08-26T17:16:26.847Z,32.15
2022-08-26T17:18:56.467Z,31.73
2022-08-26T17:21:24.953Z,31.35
2022-08-26T17:23:53.207Z,30.98
2022-08-26T17:26:21.761Z,30.66
2022-08-26T17:28:50.403Z,30.26
2022-08-26T17:31:18.555Z,30.12
2022-08-26T17:33:53.288Z,29.04
2022-08-26T17:36:28.186Z,28.59
2022-08-26T17:38:57.502Z,28.75
2022-08-26T17:41:26.027Z,28.60
2022-08-26T17:43:57.383Z,28.36
2022-08-26T17:46:25.800Z,28.34
2022-08-26T17:48:55.707Z,28.17
2022-08-26T17:51:23.954Z,28.21
2022-08-26T17:53:52.663Z,28.01
2022-08-26T17:56:24.494Z,28.14
2022-08-26T17:58:53.066Z,27.81
2022-08-26T18:01:22.098Z,26.97
2022-08-26T18:03:50.474Z,27.70
2022-08-26T18:06:21.241Z,27.52
2022-08-26T18:08:49.462Z,27.27
2022-08-26T18:11:19.796Z,26.71
2022-08-26T18:13:47.896Z,26.91
2022-08-26T18:16:17.199Z,26.79
2022-08-26T18:18:45.516Z,26.76
2022-08-26T18:21:15.683Z,26.61
2022-08-26T18:23:45.705Z,26.44
2022-08-26T18:26:17.704Z,26.40
2022-08-26T18:28:45.803Z,26.41
2022-08-26T18:31:13.645Z,26.13
2022-08-26T18:33:43.091Z,25.21
2022-08-26T18:36:17.011Z,25.82
2022-08-26T18:38:46.802Z,26.09
2022-08-26T18:41:14.951Z,25.02
2022-08-26T18:43:43.354Z,25.07
2022-08-26T18:46:12.137Z,25.40
2022-08-26T18:48:41.947Z,25.40
2022-08-26T18:51:16.209Z,25.40
2022-08-26T18:53:44.300Z,25.12
2022-08-26T18:56:16.660Z,25.67
2022-08-26T18:58:46.510Z,25.90
2022-08-26T19:01:15.594Z,25.96
2022-08-26T19:03:43.745Z,25.06
2022-08-26T19:06:15.632Z,25.01
2022-08-26T19:08:44.571Z,25.66
2022-08-26T19:11:15.004Z,25.87
2022-08-26T19:13:43.232Z,26.01
2022-08-26T19:16:15.905Z,25.98
2022-08-26T19:18:44.288Z,25.74
2022-08-26T19:21:12.359Z,24.73
2022-08-26T19:23:40.895Z,25.26
2022-08-26T19:26:09.969Z,25.40
2022-08-26T19:28:40.904Z,25.87
2022-08-26T19:31:10.500Z,26.06
2022-08-26T19:33:39.683Z,26.11
2022-08-26T19:36:11.462Z,26.13
2022-08-26T19:38:42.963Z,25.85
2022-08-26T19:41:12.552Z,25.23
2022-08-26T19:43:41.912Z,25.66
2022-08-26T19:46:12.032Z,25.96
2022-08-26T19:48:40.423Z,25.58
2022-08-26T19:51:08.525Z,25.77
2022-08-26T19:53:36.569Z,25.89
2022-08-26T19:56:04.773Z,26.02
2022-08-26T19:58:32.742Z,25.80
2022-08-26T20:01:02.121Z,25.84
2022-08-26T20:03:30.504Z,25.35
2022-08-26T20:05:58.497Z,25.79
2022-08-26T20:08:26.714Z,25.95
2022-08-26T20:10:55.864Z,26.01
2022-08-26T20:13:24.030Z,25.73
2022-08-26T20:15:51.895Z,25.98
2022-08-26T20:18:38.582Z,26.06
2022-08-26T20:21:35.901Z,25.89
2022-08-26T20:24:07.368Z,25.88
2022-08-26T20:26:37.490Z,25.58
2022-08-26T20:29:06.069Z,25.43
2022-08-26T20:31:35.399Z,25.56
2022-08-26T20:34:05.615Z,25.71
2022-08-26T20:36:34.381Z,25.61
2022-08-26T20:39:02.711Z,25.63
2022-08-26T20:41:31.430Z,25.59
2022-08-26T20:43:59.548Z,25.56
2022-08-26T20:46:27.906Z,25.76
2022-08-26T20:48:56.094Z,25.63
2022-08-26T20:51:27.543Z,25.76
2022-08-26T20:53:56.024Z,25.38
2022-08-26T20:56:25.080Z,25.52
2022-08-26T20:58:54.440Z,25.68
2022-08-26T21:01:28.234Z,25.63
2022-08-26T21:03:57.586Z,25.61
2022-08-26T21:06:26.140Z,25.63
2022-08-26T21:08:56.835Z,25.55
2022-08-26T21:11:25.787Z,25.66
2022-08-26T21:14:16.650Z,25.68
2022-08-26T21:16:43.004Z,25.48
2022-08-26T21:19:12.958Z,25.77
2022-08-26T21:21:41.966Z,25.86
2022-08-26T21:24:12.238Z,25.79
2022-08-26T21:26:40.665Z,25.70
2022-08-26T21:29:09.894Z,25.78
2022-08-26T21:31:44.867Z,25.77
2022-08-26T21:34:14.206Z,25.67
2022-08-26T21:36:41.880Z,25.60
2022-08-26T21:39:12.165Z,25.52
2022-08-26T21:41:41.466Z,25.35
2022-08-26T21:44:10.731Z,25.54
2022-08-26T21:46:39.248Z,25.58
2022-08-26T21:49:10.512Z,25.65
2022-08-26T21:51:41.210Z,25.48
2022-08-26T21:54:11.238Z,25.52
2022-08-26T21:56:44.707Z,25.58
2022-08-26T21:59:13.899Z,25.55
2022-08-26T22:01:41.824Z,25.62
2022-08-26T22:04:11.111Z,25.52
2022-08-26T22:06:43.581Z,25.55
2022-08-26T22:09:12.309Z,25.63
2022-08-26T22:11:42.715Z,25.64
2022-08-26T22:14:11.920Z,25.57
2022-08-26T22:16:39.939Z,25.52
2022-08-26T22:19:08.315Z,25.46
2022-08-26T22:21:41.772Z,25.52
2022-08-26T22:24:12.353Z,25.55
2022-08-26T22:26:41.830Z,25.50
2022-08-26T22:29:09.737Z,25.39
2022-08-26T22:31:38.793Z,25.36
2022-08-26T22:34:09.213Z,25.16
2022-08-26T22:36:43.657Z,25.41
2022-08-26T22:39:13.415Z,25.42
2022-08-26T22:41:43.408Z,25.49
2022-08-26T22:44:12.814Z,25.62
2022-08-26T22:46:41.940Z,25.68
2022-08-26T22:49:11.364Z,25.66
2022-08-26T22:51:39.416Z,25.70
2022-08-26T22:54:08.003Z,25.79
2022-08-26T22:56:36.916Z,25.72
2022-08-26T22:59:07.998Z,25.70
2022-08-26T23:01:37.797Z,25.68
2022-08-26T23:04:07.792Z,25.62
2022-08-26T23:06:36.779Z,25.68
2022-08-26T23:09:05.513Z,25.68
2022-08-26T23:11:33.743Z,25.74
2022-08-26T23:14:06.282Z,25.71
2022-08-26T23:16:39.216Z,27.21
2022-08-26T23:19:08.767Z,26.79
2022-08-26T23:21:38.020Z,26.59
2022-08-26T23:24:06.535Z,27.18
2022-08-26T23:26:35.547Z,27.37
2022-08-26T23:29:03.890Z,27.48
2022-08-26T23:31:32.854Z,27.09
2022-08-26T23:34:20.059Z,27.21
2022-08-26T23:36:48.452Z,26.61
2022-08-26T23:39:17.041Z,26.92
2022-08-26T23:41:45.113Z,26.69
2022-08-26T23:44:13.832Z,28.24
2022-08-26T23:46:41.981Z,24.26
2022-08-26T23:49:11.280Z,26.29
2022-08-26T23:51:57.533Z,26.47
2022-08-26T23:54:25.578Z,26.73
2022-08-26T23:56:53.467Z,27.14
2022-08-26T23:59:22.023Z,27.00
